createdAt,value
2018-12-24T00:01:00.764Z,7.40
2018-12-24T00:03:42.317Z,6.90
2018-12-24T00:06:23.049Z,6.90
2018-12-24T00:09:04.664Z,7.00
2018-12-24T00:11:45.858Z,6.90
2018-12-24T00:14:27.867Z,6.90
2018-12-24T00:17:09.398Z,7.00
2018-12-24T00:19:50.235Z,7.00
2018-12-24T00:22:31.636Z,6.90
2018-12-24T00:25:12.430Z,7.00
2018-12-24T00:27:53.084Z,6.90
2018-12-24T00:30:34.559Z,7.00
2018-12-24T00:33:16.932Z,6.90
2018-12-24T00:35:57.602Z,6.90
2018-12-24T00:38:39.011Z,6.90
2018-12-24T00:41:20.064Z,6.90
2018-12-24T00:44:03.247Z,7.00
2018-12-24T00:46:44.476Z,7.00
2018-12-24T00:49:26.056Z,7.00
2018-12-24T00:52:06.682Z,7.00
2018-12-24T00:54:48.122Z,6.90
2018-12-24T00:57:28.783Z,6.90
2018-12-24T01:00:10.343Z,6.90
2018-12-24T01:02:51.933Z,6.90
2018-12-24T01:05:33.517Z,7.00
2018-12-24T01:08:15.029Z,7.00
2018-12-24T01:10:56.453Z,7.00
2018-12-24T01:13:37.954Z,7.00
2018-12-24T01:16:19.427Z,7.00
2018-12-24T01:19:00.976Z,6.90
2018-12-24T01:21:42.488Z,6.90
2018-12-24T01:24:23.985Z,6.90
2018-12-24T01:27:04.555Z,6.90
2018-12-24T01:29:45.543Z,6.80
2018-12-24T01:32:27.097Z,6.80
2018-12-24T01:35:17.713Z,6.80
2018-12-24T01:37:59.375Z,6.70
2018-12-24T01:40:40.605Z,6.70
2018-12-24T01:43:21.433Z,6.70
2018-12-24T01:46:02.699Z,6.70
2018-12-24T01:48:43.777Z,6.70
2018-12-24T01:51:25.066Z,6.70
2018-12-24T01:54:06.376Z,6.60
2018-12-24T01:56:47.981Z,6.60
2018-12-24T01:59:29.286Z,6.60
2018-12-24T02:02:10.467Z,6.60
2018-12-24T02:04:51.487Z,6.60
2018-12-24T02:07:32.393Z,6.60
2018-12-24T02:10:15.909Z,6.60
2018-12-24T02:12:57.205Z,6.50
2018-12-24T02:15:37.725Z,6.50
2018-12-24T02:18:19.317Z,6.50
2018-12-24T02:21:00.050Z,6.40
2018-12-24T02:23:41.497Z,6.40
2018-12-24T02:26:22.094Z,6.50
2018-12-24T02:29:03.416Z,6.40
2018-12-24T02:31:44.534Z,6.40
2018-12-24T02:34:25.916Z,6.40
2018-12-24T02:37:07.817Z,6.40
2018-12-24T02:39:49.287Z,6.40
2018-12-24T02:42:30.783Z,6.40
2018-12-24T02:45:12.074Z,6.40
2018-12-24T02:47:52.740Z,6.40
2018-12-24T02:50:34.184Z,6.40
2018-12-24T02:53:14.981Z,6.40
2018-12-24T02:55:55.745Z,6.40
2018-12-24T02:58:36.517Z,6.40
2018-12-24T03:01:17.883Z,6.40
2018-12-24T03:03:58.623Z,6.40
2018-12-24T03:06:40.442Z,6.40
2018-12-24T03:09:21.320Z,6.50
2018-12-24T03:12:02.424Z,6.40
2018-12-24T03:14:44.087Z,6.50
2018-12-24T03:17:25.225Z,6.50
2018-12-24T03:20:06.625Z,6.50
2018-12-24T03:22:48.118Z,6.50
2018-12-24T03:25:29.087Z,6.50
2018-12-24T03:28:09.861Z,6.60
2018-12-24T03:30:50.976Z,6.50
2018-12-24T03:33:32.620Z,6.50
2018-12-24T03:36:13.258Z,6.50
2018-12-24T03:38:55.084Z,6.60
2018-12-24T03:44:24.032Z,6.60
2018-12-24T03:47:05.417Z,6.60
2018-12-24T03:49:45.966Z,6.60
2018-12-24T03:52:26.756Z,6.60
2018-12-24T03:55:08.166Z,6.60
2018-12-24T03:57:49.695Z,6.60
2018-12-24T04:00:31.198Z,6.60
2018-12-24T04:05:59.526Z,6.50
2018-12-24T04:08:47.989Z,6.60
2018-12-24T04:11:28.742Z,6.60
2018-12-24T04:14:10.541Z,6.60
2018-12-24T04:16:51.334Z,6.60
2018-12-24T04:19:32.845Z,6.60
2018-12-24T04:22:15.873Z,6.60
2018-12-24T04:24:57.214Z,6.60
2018-12-24T04:27:41.864Z,6.70
2018-12-24T04:30:20.875Z,6.70
2018-12-24T04:33:02.283Z,6.70
2018-12-24T04:35:43.723Z,6.70
2018-12-24T04:38:24.517Z,6.80
2018-12-24T04:41:06.053Z,6.70
2018-12-24T04:43:46.687Z,6.70
2018-12-24T04:46:28.266Z,6.70
2018-12-24T04:49:09.638Z,6.70
2018-12-24T04:51:51.100Z,6.70
2018-12-24T04:54:32.634Z,6.60
2018-12-24T04:57:13.331Z,6.70
2018-12-24T04:59:54.765Z,6.70
2018-12-24T05:02:35.461Z,6.70
2018-12-24T05:05:16.057Z,6.70
2018-12-24T05:07:57.404Z,6.60
2018-12-24T05:10:38.887Z,6.70
2018-12-24T05:13:20.309Z,6.60
2018-12-24T05:16:00.880Z,6.70
2018-12-24T05:18:41.994Z,6.70
2018-12-24T05:21:23.277Z,6.60
2018-12-24T05:24:04.088Z,6.70
2018-12-24T05:26:45.574Z,6.60
2018-12-24T05:29:26.676Z,6.70
2018-12-24T05:32:08.058Z,6.60
2018-12-24T05:34:49.616Z,6.70
2018-12-24T05:37:30.249Z,6.70
2018-12-24T05:40:10.934Z,6.70
2018-12-24T05:42:52.364Z,6.70
2018-12-24T05:45:32.158Z,6.80
2018-12-24T05:48:15.584Z,6.80
2018-12-24T05:50:56.241Z,6.80
2018-12-24T05:53:36.950Z,6.70
2018-12-24T05:56:18.406Z,6.70
2018-12-24T05:58:59.353Z,6.70
2018-12-24T06:01:40.765Z,6.70
2018-12-24T06:04:22.291Z,6.60
2018-12-24T06:07:03.848Z,6.60
2018-12-24T06:09:45.362Z,6.60
2018-12-24T06:12:26.082Z,6.60
2018-12-24T06:15:07.315Z,6.60
2018-12-24T06:17:48.090Z,6.50
2018-12-24T06:20:37.470Z,6.60
2018-12-24T06:23:12.521Z,6.50
2018-12-24T06:25:55.724Z,6.50
2018-12-24T06:28:37.685Z,6.60
2018-12-24T06:31:19.118Z,6.60
2018-12-24T06:34:00.494Z,6.60
2018-12-24T06:36:42.096Z,6.60
2018-12-24T06:39:23.591Z,6.60
2018-12-24T06:42:04.115Z,6.60
2018-12-24T06:44:45.806Z,6.60
2018-12-24T06:47:27.125Z,6.60
2018-12-24T06:50:09.000Z,6.60
2018-12-24T06:52:50.070Z,6.60
2018-12-24T06:55:29.699Z,6.60
2018-12-24T06:58:10.674Z,6.60
2018-12-24T07:00:51.268Z,6.60
2018-12-24T07:03:32.793Z,6.60
2018-12-24T07:06:13.529Z,6.60
2018-12-24T07:08:54.283Z,6.60
2018-12-24T07:11:35.260Z,6.50
2018-12-24T07:14:15.464Z,6.50
2018-12-24T07:16:56.494Z,6.50
2018-12-24T07:19:37.905Z,6.50
2018-12-24T07:22:18.949Z,6.50
2018-12-24T07:25:01.024Z,6.50
2018-12-24T07:27:42.291Z,6.60
2018-12-24T07:30:23.074Z,6.60
2018-12-24T07:33:03.686Z,6.60
2018-12-24T07:35:44.601Z,6.60
2018-12-24T07:41:38.436Z,6.60
2018-12-24T07:44:24.090Z,6.60
2018-12-24T07:47:03.294Z,6.60
2018-12-24T07:49:44.229Z,6.60
2018-12-24T07:52:23.669Z,6.70
2018-12-24T07:55:26.200Z,6.70
2018-12-24T07:57:54.515Z,6.70
2018-12-24T08:00:35.971Z,6.70
2018-12-24T08:03:16.541Z,6.70
2018-12-24T08:05:57.522Z,6.60
2018-12-24T08:08:38.335Z,6.70
2018-12-24T08:11:19.188Z,6.70
2018-12-24T08:13:49.093Z,6.70
2018-12-24T08:16:37.546Z,6.70
2018-12-24T08:19:18.539Z,6.70
2018-12-24T08:21:59.333Z,6.70
2018-12-24T08:24:40.174Z,6.70
2018-12-24T08:27:22.255Z,6.70
2018-12-24T08:30:03.074Z,6.70
2018-12-24T08:32:42.674Z,6.70
2018-12-24T08:35:24.097Z,6.70
2018-12-24T08:38:06.344Z,6.70
2018-12-24T08:40:48.824Z,6.80
2018-12-24T08:43:29.826Z,6.80
2018-12-24T08:46:11.249Z,6.80
2018-12-24T08:48:40.596Z,6.80
2018-12-24T08:51:29.378Z,6.80
2018-12-24T08:54:10.203Z,6.80
2018-12-24T08:56:52.701Z,6.80
2018-12-24T09:02:24.394Z,6.80
2018-12-24T09:05:05.496Z,6.80
2018-12-24T09:07:46.261Z,6.90
2018-12-24T09:10:27.678Z,6.90
2018-12-24T09:13:09.119Z,6.90
2018-12-24T09:15:53.027Z,6.90
2018-12-24T09:18:35.329Z,6.90
2018-12-24T09:21:17.426Z,7.00
2018-12-24T09:24:04.620Z,7.00
2018-12-24T09:26:46.807Z,7.00
2018-12-24T09:29:28.223Z,7.00
2018-12-24T09:32:09.208Z,7.00
2018-12-24T09:34:49.824Z,7.00
2018-12-24T09:37:31.594Z,7.00
2018-12-24T09:40:16.338Z,7.00
2018-12-24T09:42:57.749Z,7.00
2018-12-24T09:45:41.832Z,7.00
2018-12-24T09:48:23.035Z,7.00
2018-12-24T09:51:04.406Z,7.10
2018-12-24T09:53:45.668Z,7.00
2018-12-24T09:59:30.153Z,7.00
2018-12-24T10:02:11.234Z,7.00
2018-12-24T10:04:52.227Z,7.00
2018-12-24T10:07:40.100Z,7.00
2018-12-24T10:10:28.228Z,7.00
2018-12-24T10:13:19.645Z,7.00
2018-12-24T10:16:00.930Z,7.00
2018-12-24T10:18:41.651Z,7.00
2018-12-24T10:21:22.323Z,7.00
2018-12-24T10:24:11.664Z,7.00
2018-12-24T10:26:52.354Z,7.00
2018-12-24T10:29:36.614Z,7.00
2018-12-24T10:32:21.043Z,7.00
2018-12-24T10:35:02.508Z,7.00
2018-12-24T10:37:43.888Z,7.00
2018-12-24T10:40:24.775Z,7.00
2018-12-24T10:43:05.438Z,7.00
2018-12-24T10:45:46.814Z,7.10
2018-12-24T10:48:27.409Z,7.10
2018-12-24T10:51:09.188Z,7.10
2018-12-24T10:53:50.758Z,7.10
2018-12-24T10:56:32.108Z,7.10
2018-12-24T10:59:13.173Z,7.20
2018-12-24T11:01:54.079Z,7.20
2018-12-24T11:04:37.331Z,7.20
2018-12-24T11:07:18.089Z,7.20
2018-12-24T11:09:59.763Z,7.30
2018-12-24T11:12:42.585Z,7.30
2018-12-24T11:15:25.249Z,7.40
2018-12-24T11:18:06.745Z,7.40
2018-12-24T11:20:47.502Z,7.50
2018-12-24T11:23:28.216Z,7.50
2018-12-24T11:26:09.827Z,7.60
2018-12-24T11:28:51.330Z,7.60
2018-12-24T11:31:33.145Z,7.70
2018-12-24T11:34:14.563Z,7.70
2018-12-24T11:42:55.138Z,8.00
2018-12-24T11:45:36.406Z,7.90
2018-12-24T11:48:20.118Z,7.90
2018-12-24T11:51:00.264Z,7.90
2018-12-24T11:53:43.195Z,7.90
2018-12-24T11:56:24.432Z,7.90
2018-12-24T11:59:05.247Z,7.90
2018-12-24T12:01:47.068Z,7.90
2018-12-24T12:04:28.149Z,8.00
2018-12-24T12:07:08.913Z,8.00
2018-12-24T12:09:49.540Z,8.00
2018-12-24T12:12:30.769Z,8.00
2018-12-24T12:15:13.055Z,8.00
2018-12-24T12:17:53.924Z,8.00
2018-12-24T12:20:35.740Z,8.00
2018-12-24T12:23:17.347Z,8.00
2018-12-24T12:26:00.012Z,8.10
2018-12-24T12:28:41.550Z,8.00
2018-12-24T12:31:24.840Z,8.00
2018-12-24T12:34:05.897Z,8.10
2018-12-24T12:36:46.626Z,8.10
2018-12-24T12:39:28.218Z,8.10
2018-12-24T12:42:09.647Z,8.20
2018-12-24T12:44:50.433Z,8.20
2018-12-24T12:47:31.688Z,8.20
2018-12-24T12:50:12.421Z,8.30
2018-12-24T12:52:53.092Z,8.20
2018-12-24T12:55:34.806Z,8.30
2018-12-24T12:58:18.777Z,8.30
2018-12-24T13:00:59.931Z,8.40
2018-12-24T13:03:40.839Z,8.40
2018-12-24T13:06:40.130Z,8.40
2018-12-24T13:09:21.315Z,8.40
2018-12-24T13:12:02.796Z,8.40
2018-12-24T13:14:53.404Z,8.40
2018-12-24T13:17:33.913Z,8.40
2018-12-24T13:20:25.061Z,8.40
2018-12-24T13:23:04.259Z,8.40
2018-12-24T13:25:45.853Z,8.40
2018-12-24T13:28:26.498Z,8.40
2018-12-24T13:31:12.653Z,8.40
2018-12-24T13:33:50.836Z,8.40
2018-12-24T13:36:20.268Z,8.30
2018-12-24T13:39:08.780Z,8.30
2018-12-24T13:41:57.322Z,8.30
2018-12-24T13:44:26.606Z,8.30
2018-12-24T13:47:15.101Z,8.30
2018-12-24T13:49:56.686Z,8.30
2018-12-24T13:52:37.906Z,8.40
2018-12-24T13:55:18.492Z,8.30
2018-12-24T13:58:08.390Z,8.30
2018-12-24T14:00:44.928Z,8.30
2018-12-24T14:03:26.477Z,8.30
2018-12-24T14:06:07.345Z,8.30
2018-12-24T14:08:48.459Z,8.30
2018-12-24T14:11:29.130Z,8.30
2018-12-24T14:14:09.898Z,8.30
2018-12-24T14:16:51.342Z,8.30
2018-12-24T14:19:32.847Z,8.20
2018-12-24T14:22:14.174Z,8.20
2018-12-24T14:24:54.965Z,8.20
2018-12-24T14:30:34.374Z,8.10
2018-12-24T14:33:15.889Z,8.20
2018-12-24T14:35:46.046Z,8.20
2018-12-24T14:38:46.290Z,8.10
2018-12-24T14:41:18.338Z,8.10
2018-12-24T14:43:59.526Z,8.10
2018-12-24T14:46:43.062Z,8.10
2018-12-24T14:49:23.819Z,8.10
2018-12-24T14:52:04.864Z,8.10
2018-12-24T14:54:49.295Z,8.10
2018-12-24T14:57:30.580Z,8.10
2018-12-24T15:00:12.093Z,8.10
2018-12-24T15:05:52.366Z,8.00
2018-12-24T15:11:41.087Z,8.00
2018-12-24T15:14:22.296Z,8.00
2018-12-24T15:17:05.103Z,8.00
2018-12-24T15:19:59.016Z,8.00
2018-12-24T15:22:40.589Z,7.90
2018-12-24T15:25:21.257Z,7.90
2018-12-24T15:30:59.360Z,7.90
2018-12-24T15:33:40.888Z,7.90
2018-12-24T15:36:22.321Z,7.90
2018-12-24T15:39:04.268Z,7.90
2018-12-24T15:41:45.635Z,7.80
2018-12-24T15:44:26.306Z,7.80
2018-12-24T15:47:08.694Z,7.80
2018-12-24T15:49:50.171Z,7.80
2018-12-24T15:52:31.510Z,7.80
2018-12-24T15:55:13.269Z,7.80
2018-12-24T15:57:54.074Z,7.70
2018-12-24T16:00:35.369Z,7.70
2018-12-24T16:03:04.831Z,7.70
2018-12-24T16:08:30.128Z,7.70
2018-12-24T16:11:11.393Z,7.60
2018-12-24T16:13:52.793Z,7.60
2018-12-24T16:16:33.737Z,7.60
2018-12-24T16:19:14.557Z,7.60
2018-12-24T16:21:59.961Z,7.60
2018-12-24T16:24:40.800Z,7.60
2018-12-24T16:27:24.152Z,7.50
2018-12-24T16:30:04.991Z,7.50
2018-12-24T16:35:33.303Z,7.50
2018-12-24T16:38:02.718Z,7.50
2018-12-24T16:40:43.913Z,7.50
2018-12-24T16:43:25.257Z,7.50
2018-12-24T16:46:06.108Z,7.50
2018-12-24T16:48:46.734Z,7.50
2018-12-24T16:51:27.479Z,7.50
2018-12-24T16:54:08.876Z,7.40
2018-12-24T16:56:49.706Z,7.40
2018-12-24T16:59:30.659Z,7.40
2018-12-24T17:02:12.973Z,7.40
2018-12-24T17:04:54.483Z,7.40
2018-12-24T17:07:36.093Z,7.40
2018-12-24T17:10:20.422Z,7.40
2018-12-24T17:13:14.561Z,7.30
2018-12-24T17:15:56.090Z,7.30
2018-12-24T17:18:37.004Z,7.30
2018-12-24T17:21:18.386Z,7.30
2018-12-24T17:24:00.072Z,7.30
2018-12-24T17:26:41.538Z,7.30
2018-12-24T17:29:23.399Z,7.30
2018-12-24T17:32:04.529Z,7.30
2018-12-24T17:34:45.423Z,7.30
2018-12-24T17:37:28.080Z,7.30
2018-12-24T17:40:09.540Z,7.30
2018-12-24T17:42:50.407Z,7.20
2018-12-24T17:45:32.062Z,7.20
2018-12-24T17:48:13.180Z,7.20
2018-12-24T17:50:54.542Z,7.20
2018-12-24T17:53:35.546Z,7.20
2018-12-24T17:56:16.262Z,7.20
2018-12-24T17:58:57.632Z,7.30
2018-12-24T18:01:38.388Z,7.30
2018-12-24T18:04:19.028Z,7.20
2018-12-24T18:06:59.855Z,7.20
2018-12-24T18:12:29.695Z,7.20
2018-12-24T18:15:11.144Z,7.20
2018-12-24T18:17:54.392Z,7.20
2018-12-24T18:20:42.824Z,7.20
2018-12-24T18:23:23.965Z,7.20
2018-12-24T18:26:04.847Z,7.20
2018-12-24T18:28:46.311Z,7.20
2018-12-24T18:31:27.667Z,7.10
2018-12-24T18:34:09.167Z,7.20
2018-12-24T18:36:50.149Z,7.20
2018-12-24T18:39:31.849Z,7.20
2018-12-24T18:42:11.358Z,7.10
2018-12-24T18:44:53.879Z,7.10
2018-12-24T18:47:35.231Z,7.10
2018-12-24T18:50:16.315Z,7.10
2018-12-24T18:52:57.214Z,7.10
2018-12-24T18:55:40.230Z,7.10
2018-12-24T19:01:00.388Z,7.10
2018-12-24T19:03:42.184Z,7.10
2018-12-24T19:06:23.724Z,7.10
2018-12-24T19:08:53.231Z,7.10
2018-12-24T19:11:41.790Z,7.10
2018-12-24T19:14:24.167Z,7.10
2018-12-24T19:17:05.476Z,7.10
2018-12-24T19:19:51.242Z,7.10
2018-12-24T19:22:29.019Z,7.10
2018-12-24T19:25:17.439Z,7.10
2018-12-24T19:27:59.211Z,7.10
2018-12-24T19:30:41.668Z,7.00
2018-12-24T19:33:26.062Z,7.10
2018-12-24T19:36:07.279Z,7.10
2018-12-24T19:38:49.623Z,7.10
2018-12-24T19:41:30.721Z,7.10
2018-12-24T19:44:12.310Z,7.10
2018-12-24T19:46:56.740Z,7.10
2018-12-24T19:49:37.703Z,7.10
2018-12-24T19:52:18.803Z,7.00
2018-12-24T19:54:59.726Z,7.00
2018-12-24T19:57:41.293Z,7.00
2018-12-24T20:00:22.858Z,7.10
2018-12-24T20:03:04.163Z,7.00
2018-12-24T20:05:45.582Z,7.00
2018-12-24T20:08:27.309Z,7.00
2018-12-24T20:11:08.573Z,7.00
2018-12-24T20:13:50.167Z,7.00
2018-12-24T20:16:41.921Z,7.00
2018-12-24T20:19:21.571Z,7.00
2018-12-24T20:22:10.068Z,7.10
2018-12-24T20:24:58.559Z,7.00
2018-12-24T20:27:47.301Z,7.10
2018-12-24T20:30:35.764Z,7.10
2018-12-24T20:33:36.872Z,7.10
2018-12-24T20:36:07.640Z,7.10
2018-12-24T20:38:48.397Z,7.10
2018-12-24T20:41:29.057Z,7.10
2018-12-24T20:44:10.724Z,7.10
2018-12-24T20:46:52.661Z,7.10
2018-12-24T20:49:33.847Z,7.10
2018-12-24T20:52:16.043Z,7.20
2018-12-24T20:54:56.793Z,7.10
2018-12-24T20:57:38.256Z,7.10
2018-12-24T21:00:19.021Z,7.10
2018-12-24T21:02:59.982Z,7.10
2018-12-24T21:05:40.799Z,7.10
2018-12-24T21:08:20.502Z,7.10
2018-12-24T21:11:01.430Z,7.00
2018-12-24T21:13:42.247Z,7.00
2018-12-24T21:16:22.957Z,7.00
2018-12-24T21:19:03.614Z,7.00
2018-12-24T21:21:45.069Z,7.00
2018-12-24T21:24:25.974Z,7.00
2018-12-24T21:27:06.623Z,6.90
2018-12-24T21:29:47.565Z,6.90
2018-12-24T21:32:33.883Z,6.90
2018-12-24T21:38:16.722Z,6.90
2018-12-24T21:43:42.564Z,6.90
2018-12-24T21:46:24.049Z,6.90
2018-12-24T21:49:05.637Z,6.80
2018-12-24T21:51:47.217Z,6.80
2018-12-24T21:54:28.758Z,6.80
2018-12-24T22:00:22.307Z,6.80
2018-12-24T22:03:03.271Z,6.80
2018-12-24T22:05:44.675Z,6.80
2018-12-24T22:08:25.301Z,6.80
2018-12-24T22:11:06.948Z,6.80
2018-12-24T22:13:47.561Z,6.80
2018-12-24T22:16:28.369Z,6.80
2018-12-24T22:19:09.336Z,6.70
2018-12-24T22:21:50.495Z,6.80
2018-12-24T22:24:31.581Z,6.70
2018-12-24T22:27:12.584Z,6.80
2018-12-24T22:29:52.157Z,6.80
2018-12-24T22:32:21.711Z,6.80
2018-12-24T22:35:10.350Z,6.70
2018-12-24T22:37:51.499Z,6.70
2018-12-24T22:40:32.347Z,6.80
2018-12-24T22:43:12.991Z,6.80
2018-12-24T22:45:53.822Z,6.80
2018-12-24T22:48:40.611Z,6.70
2018-12-24T22:51:16.883Z,6.70
2018-12-24T22:53:58.323Z,6.70
2018-12-24T22:56:39.837Z,6.70
2018-12-24T22:59:21.076Z,6.70
2018-12-24T23:02:02.855Z,6.70
2018-12-24T23:04:44.014Z,6.70
2018-12-24T23:07:25.570Z,6.70
2018-12-24T23:10:06.975Z,6.70
2018-12-24T23:12:48.255Z,6.70
2018-12-24T23:15:29.725Z,6.70
2018-12-24T23:18:10.503Z,6.70
2018-12-24T23:20:51.436Z,6.70
2018-12-24T23:23:31.065Z,6.70
2018-12-24T23:26:14.395Z,6.70
2018-12-24T23:28:55.467Z,6.70
2018-12-24T23:31:36.399Z,6.70
2018-12-24T23:34:17.383Z,6.70
2018-12-24T23:36:46.781Z,6.70
2018-12-24T23:39:35.264Z,6.70
2018-12-24T23:42:14.849Z,6.70
2018-12-24T23:45:03.338Z,6.70
2018-12-24T23:47:44.543Z,6.70
2018-12-24T23:50:24.044Z,6.60
2018-12-24T23:53:12.525Z,6.60
2018-12-24T23:55:53.945Z,6.60
2018-12-24T23:58:34.769Z,6.60
